To NAV CANADA Home Page Login to a new session Search on AWWS site Feedback and Comments Disclaimer Vers la page française équivalente Tips FAQ What's new on the site To the Forecasts and Observations / NOTAM section To "File a Flight Plan" website Publications and other links Update of the User's profile FIC Telephone Numbers My Weather Data Folder Route Weather Data Regional Weather Data Local Weather Data To the Forecasts and Observations / NOTAM section
Request Generated 09/30/2016 at 21:55:17 UTC . Weather information available at that time is displayed.

METAR/TAF

NORTH BATTLEFORD/SK    (show WxCam)

METAR CYQW 302100Z AUTO 19004KT 130V300 9SM CLR 17/10 A3000 RMK
SLP169 DENSITY ALT 2300FT=
METAR CYQW 302000Z AUTO VRB02KT 9SM CLR 16/09 A3000 RMK SLP172
DENSITY ALT 2200FT=
METAR CYQW 301900Z AUTO 15004KT 140V260 9SM CLR 15/09 A3002 RMK
SLP181 DENSITY ALT 2000FT=

TAF CYQW 301738Z 3018/0106 10008KT P6SM BKN010 BKN030 TEMPO 3018/3024
SCT010 BKN030
FM010000 05008KT P6SM SCT030
RMK FCST BASED ON AUTO OBS. NXT FCST BY 010000Z=
Your time UTC time
Weather data provided by Environment Canada and NAV CANADA